KMCC/MCC METAR and TAF weather

Enter ICAO airport designator
Station Type Date Time Source
KMCC METAR 2021/08/05 03:55 UTC NOAA

KMCC 050355Z AUTO 19010G16KT 10SM CLR 24/10 A2985 RMK AO2


Station Type Date Time Source
KMCC Decoded METAR 2021/08/05 03:55 UTC NOAA

Sacramento, McClellan Airfield Airport, CA, United States (KMCC) 38-40N 121-24W
Aug 04, 2021 - 11:55 PM EDT / 2021.08.05 0355 UTC
Wind: from the S (190 degrees) at 12 MPH (10 KT) gusting to 18 MPH (16 KT):0
Visibility: 10 mile(s):0
Sky conditions: clear
Temperature: 75 F (24 C)
Dew Point: 50 F (10 C)
Relative Humidity: 41%
Pressure (altimeter): 29.85 in. Hg (1010 hPa)
ob: KMCC 050355Z AUTO 19010G16KT 10SM CLR 24/10 A2985 RMK AO2
cycle: 4

Station Type Date Time Source
KMCC TAF 2021/08/04 18:57 UTC NOAA

TAF KMCC 041736Z 0418/0518 16008KT P6SM SKC
FM041900 20010KT P6SM SKC
FM050400 16012KT P6SM SKC

Example: see airport list